Time;durP1;ratioP1;P1;durP2;ratioP2;P2;SDS_P1;SDS_P2;PMS_P1;PMS_P2;Temp;Humidity;BMP_temperature;BMP_pressure;BME280_temperature;BME280_humidity;BME280_pressure;Samples;Min_cycle;Max_cycle;Signal;HPM_P1;HPM_P2
2022/02/28 00:01:12;;;;;;;5.63;4.03;;;;;;;;;;4922572;29;20302;-75
2022/02/28 00:03:39;;;;;;;5.95;4.22;;;;;;;;;;4927305;29;20223;-76
2022/02/28 00:06:07;;;;;;;6.53;4.93;;;;;;;;;;4931498;29;20199;-75
2022/02/28 00:08:34;;;;;;;9.05;4.75;;;;;;;;;;4930151;29;20238;-74
2022/02/28 00:11:03;;;;;;;5.18;4.68;;;;;;;;;;4926777;29;20674;-73
2022/02/28 00:13:30;;;;;;;7.45;5.15;;;;;;;;;;4935731;29;20571;-75
2022/02/28 00:15:57;;;;;;;5.57;4.95;;;;;;;;;;4930426;29;20586;-75
2022/02/28 00:18:24;;;;;;;6.57;4.75;;;;;;;;;;4929327;29;20574;-76
2022/02/28 00:20:51;;;;;;;6.22;5.20;;;;;;;;;;4935703;29;20214;-76
2022/02/28 00:23:18;;;;;;;7.75;4.80;;;;;;;;;;4941432;29;20223;-75
2022/02/28 00:25:46;;;;;;;4.45;3.85;;;;;;;;;;4937073;29;20217;-76
2022/02/28 00:28:14;;;;;;;7.70;4.80;;;;;;;;;;4930681;29;20222;-76
2022/02/28 00:30:42;;;;;;;6.75;4.88;;;;;;;;;;4939951;29;20210;-76
2022/02/28 00:33:10;;;;;;;5.53;4.38;;;;;;;;;;4944227;29;20195;-77
2022/02/28 00:35:37;;;;;;;5.43;4.18;;;;;;;;;;4938401;29;20210;-77
2022/02/28 00:38:05;;;;;;;7.25;5.10;;;;;;;;;;4933995;29;22021;-75
2022/02/28 00:40:32;;;;;;;9.07;4.82;;;;;;;;;;4932093;29;20195;-76
2022/02/28 00:42:59;;;;;;;6.53;4.80;;;;;;;;;;4927680;29;20235;-75
2022/02/28 00:45:28;;;;;;;5.82;4.28;;;;;;;;;;4932953;29;20229;-76
2022/02/28 00:47:55;;;;;;;6.13;4.80;;;;;;;;;;4934791;29;20623;-76
2022/02/28 00:50:22;;;;;;;6.22;4.82;;;;;;;;;;4934671;29;20195;-76
2022/02/28 00:52:49;;;;;;;5.53;4.88;;;;;;;;;;4934824;29;20195;-75
2022/02/28 00:55:16;;;;;;;5.43;4.63;;;;;;;;;;4930850;29;20203;-76
2022/02/28 00:57:43;;;;;;;5.50;3.80;;;;;;;;;;4922496;29;20203;-75
2022/02/28 01:00:12;;;;;;;7.55;4.72;;;;;;;;;;4922221;29;20243;-76
2022/02/28 01:02:42;;;;;;;9.25;5.43;;;;;;;;;;4931940;29;20718;-76
2022/02/28 01:05:09;;;;;;;6.18;4.82;;;;;;;;;;4934439;29;20210;-75
2022/02/28 01:07:36;;;;;;;6.68;5.03;;;;;;;;;;4933602;29;20206;-76
2022/02/28 01:10:05;;;;;;;6.70;4.65;;;;;;;;;;4932020;29;20207;-75
2022/02/28 01:12:32;;;;;;;6.43;5.10;;;;;;;;;;4929953;29;20203;-75
2022/02/28 01:14:59;;;;;;;6.45;4.55;;;;;;;;;;4935883;29;20519;-76
2022/02/28 01:17:26;;;;;;;6.47;4.88;;;;;;;;;;4931929;29;20199;-76
2022/02/28 01:19:54;;;;;;;12.45;4.28;;;;;;;;;;4930092;29;20203;-76
2022/02/28 01:22:21;;;;;;;5.60;5.00;;;;;;;;;;4934360;29;20282;-75
2022/02/28 01:24:49;;;;;;;7.30;4.68;;;;;;;;;;4935114;29;20218;-76
2022/02/28 01:27:16;;;;;;;6.15;5.07;;;;;;;;;;4933929;29;20199;-75
2022/02/28 01:29:43;;;;;;;8.27;4.82;;;;;;;;;;4933325;29;20559;-76
2022/02/28 01:32:10;;;;;;;5.28;4.25;;;;;;;;;;4933004;29;20682;-76
2022/02/28 01:34:37;;;;;;;5.10;4.60;;;;;;;;;;4933936;29;20194;-76
2022/02/28 01:37:06;;;;;;;4.82;4.18;;;;;;;;;;4933718;29;20218;-76
2022/02/28 01:39:33;;;;;;;8.02;5.22;;;;;;;;;;4932850;29;20203;-76
2022/02/28 01:42:00;;;;;;;6.13;5.18;;;;;;;;;;4934294;29;20607;-76
2022/02/28 01:44:27;;;;;;;10.02;4.38;;;;;;;;;;4934352;29;20671;-77
2022/02/28 01:46:56;;;;;;;6.72;4.82;;;;;;;;;;4931997;29;20206;-77
2022/02/28 01:49:23;;;;;;;7.90;4.60;;;;;;;;;;4933887;29;20290;-76
2022/02/28 01:51:50;;;;;;;7.22;4.65;;;;;;;;;;4933981;29;20686;-75
2022/02/28 01:54:18;;;;;;;5.10;4.30;;;;;;;;;;4933623;29;20544;-75
2022/02/28 01:56:45;;;;;;;6.78;5.32;;;;;;;;;;4933511;29;20222;-76
2022/02/28 01:59:13;;;;;;;6.72;4.95;;;;;;;;;;4934025;29;20226;-75
2022/02/28 02:01:40;;;;;;;5.82;4.70;;;;;;;;;;4932087;29;20206;-75
2022/02/28 02:04:07;;;;;;;7.07;6.38;;;;;;;;;;4933280;29;20238;-76
2022/02/28 02:06:35;;;;;;;6.20;4.63;;;;;;;;;;4933756;29;20199;-75
2022/02/28 02:09:02;;;;;;;13.57;5.35;;;;;;;;;;4934146;29;20203;-76
2022/02/28 02:11:31;;;;;;;7.15;4.43;;;;;;;;;;4931986;29;20228;-76
2022/02/28 02:13:58;;;;;;;6.50;5.03;;;;;;;;;;4933542;29;20199;-76
2022/02/28 02:16:25;;;;;;;6.20;4.90;;;;;;;;;;4931325;29;20206;-76
2022/02/28 02:18:52;;;;;;;5.35;4.85;;;;;;;;;;4933965;29;20205;-76
2022/02/28 02:21:21;;;;;;;8.85;5.15;;;;;;;;;;4933193;29;20211;-76
2022/02/28 02:23:48;;;;;;;5.40;4.85;;;;;;;;;;4933425;29;20346;-76
2022/02/28 02:26:15;;;;;;;6.13;3.85;;;;;;;;;;4932482;29;20214;-76
2022/02/28 02:28:42;;;;;;;6.43;4.80;;;;;;;;;;4933607;29;20203;-77
2022/02/28 02:31:10;;;;;;;11.75;4.97;;;;;;;;;;4933783;29;20190;-77
2022/02/28 02:33:38;;;;;;;5.22;4.35;;;;;;;;;;4933726;29;20186;-77
2022/02/28 02:36:07;;;;;;;5.03;4.20;;;;;;;;;;4933761;29;20697;-77
2022/02/28 02:38:36;;;;;;;8.13;4.95;;;;;;;;;;4932626;29;20567;-76
2022/02/28 02:41:04;;;;;;;8.40;5.60;;;;;;;;;;4934101;29;20206;-76
2022/02/28 02:43:31;;;;;;;5.53;4.95;;;;;;;;;;4933387;29;20306;-76
2022/02/28 02:45:58;;;;;;;7.22;5.05;;;;;;;;;;4931859;29;20222;-77
2022/02/28 02:48:26;;;;;;;6.18;4.05;;;;;;;;;;4926930;29;20206;-76
2022/02/28 02:50:54;;;;;;;6.82;5.07;;;;;;;;;;4939299;28;20285;-77
2022/02/28 02:53:21;;;;;;;7.15;5.05;;;;;;;;;;4937177;29;20555;-77
2022/02/28 02:55:49;;;;;;;6.03;4.78;;;;;;;;;;4937982;29;20198;-77
2022/02/28 02:58:17;;;;;;;6.57;5.05;;;;;;;;;;4936907;29;20195;-76
2022/02/28 03:00:44;;;;;;;5.18;4.30;;;;;;;;;;4937174;29;20199;-77
2022/02/28 03:03:12;;;;;;;6.13;4.30;;;;;;;;;;4937773;29;20215;-77
2022/02/28 03:05:39;;;;;;;7.47;4.57;;;;;;;;;;4937059;29;20201;-77
2022/02/28 03:08:06;;;;;;;7.60;5.15;;;;;;;;;;4936917;29;20195;-76
2022/02/28 03:10:33;;;;;;;5.80;5.18;;;;;;;;;;4937370;29;20207;-77
2022/02/28 03:13:02;;;;;;;6.13;5.00;;;;;;;;;;4937684;29;20210;-77
2022/02/28 03:15:29;;;;;;;6.15;4.20;;;;;;;;;;4937005;29;20222;-77
2022/02/28 03:17:56;;;;;;;7.80;5.05;;;;;;;;;;4936571;29;20206;-76
2022/02/28 03:20:24;;;;;;;5.53;4.45;;;;;;;;;;4937644;29;20210;-77
2022/02/28 03:22:51;;;;;;;6.57;4.72;;;;;;;;;;4933838;29;20223;-77
2022/02/28 03:25:18;;;;;;;4.90;4.30;;;;;;;;;;4934593;29;20214;-77
2022/02/28 03:27:45;;;;;;;6.15;4.40;;;;;;;;;;4935120;29;20199;-75
2022/02/28 03:30:14;;;;;;;7.05;3.55;;;;;;;;;;4924836;29;20195;-76
2022/02/28 03:32:41;;;;;;;6.05;4.53;;;;;;;;;;4935237;29;20666;-76
2022/02/28 03:35:09;;;;;;;5.20;4.68;;;;;;;;;;4936090;29;20203;-76
2022/02/28 03:37:36;;;;;;;5.07;4.55;;;;;;;;;;4934400;29;20198;-75
2022/02/28 03:40:03;;;;;;;7.90;4.80;;;;;;;;;;4935222;29;20658;-76
2022/02/28 03:42:31;;;;;;;6.22;4.40;;;;;;;;;;4935453;29;20203;-76
2022/02/28 03:44:58;;;;;;;5.18;4.07;;;;;;;;;;4934879;29;20278;-75
2022/02/28 03:47:26;;;;;;;6.32;3.80;;;;;;;;;;4935058;29;20210;-75
2022/02/28 03:49:53;;;;;;;5.63;4.38;;;;;;;;;;4936025;29;20199;-76
2022/02/28 03:52:20;;;;;;;6.85;4.65;;;;;;;;;;4936245;29;20214;-76
2022/02/28 03:54:48;;;;;;;5.70;4.22;;;;;;;;;;4934898;29;20202;-79
2022/02/28 03:57:15;;;;;;;5.32;4.57;;;;;;;;;;4930583;29;20570;-77
2022/02/28 03:59:42;;;;;;;4.88;4.38;;;;;;;;;;4934738;29;20221;-76
2022/02/28 04:02:09;;;;;;;5.15;3.95;;;;;;;;;;4933624;29;20199;-76
2022/02/28 04:04:37;;;;;;;5.50;4.18;;;;;;;;;;4935204;29;20211;-76
2022/02/28 04:07:05;;;;;;;5.47;4.30;;;;;;;;;;4934475;29;20199;-76
2022/02/28 04:09:34;;;;;;;9.88;4.50;;;;;;;;;;4933993;29;20207;-76
2022/02/28 04:12:02;;;;;;;5.05;3.60;;;;;;;;;;4934963;29;20203;-76
2022/02/28 04:14:30;;;;;;;4.10;3.35;;;;;;;;;;4934324;29;20651;-76
2022/02/28 04:16:57;;;;;;;5.43;4.45;;;;;;;;;;4933175;29;20203;-76
2022/02/28 04:19:24;;;;;;;4.75;3.35;;;;;;;;;;4934711;29;20199;-76
2022/02/28 04:21:52;;;;;;;4.05;3.75;;;;;;;;;;4934580;29;20203;-76
2022/02/28 04:24:20;;;;;;;7.47;4.43;;;;;;;;;;4897066;29;1117424;-77
2022/02/28 04:26:47;;;;;;;6.30;4.82;;;;;;;;;;4935155;29;20202;-77
2022/02/28 04:29:14;;;;;;;4.57;4.13;;;;;;;;;;4935844;29;20195;-77
2022/02/28 04:31:42;;;;;;;5.82;4.25;;;;;;;;;;4935305;29;20667;-77
2022/02/28 04:34:09;;;;;;;7.03;4.38;;;;;;;;;;4936031;29;20206;-78
2022/02/28 04:36:36;;;;;;;5.85;3.97;;;;;;;;;;4934592;29;20635;-78
2022/02/28 04:39:05;;;;;;;5.30;4.80;;;;;;;;;;4934780;29;20199;-78
2022/02/28 04:41:32;;;;;;;5.07;4.00;;;;;;;;;;4935878;29;20663;-76
2022/02/28 04:43:59;;;;;;;7.18;4.10;;;;;;;;;;4934601;29;20694;-77
2022/02/28 04:46:26;;;;;;;6.57;4.40;;;;;;;;;;4934306;29;20222;-76
2022/02/28 04:48:53;;;;;;;4.43;4.00;;;;;;;;;;4935592;29;20203;-77
2022/02/28 04:51:20;;;;;;;5.30;4.10;;;;;;;;;;4935564;29;20218;-77
2022/02/28 04:53:47;;;;;;;7.55;4.07;;;;;;;;;;4934499;29;20210;-76
2022/02/28 04:56:16;;;;;;;5.32;4.20;;;;;;;;;;4916482;29;20668;-76
2022/02/28 04:58:43;;;;;;;4.80;4.05;;;;;;;;;;4924955;29;20203;-75
2022/02/28 05:01:10;;;;;;;4.10;3.55;;;;;;;;;;4934192;29;20214;-76
2022/02/28 05:03:37;;;;;;;6.93;4.82;;;;;;;;;;4934997;29;20211;-76
2022/02/28 05:06:04;;;;;;;7.60;4.90;;;;;;;;;;4934576;29;20207;-77
2022/02/28 05:08:31;;;;;;;4.72;4.03;;;;;;;;;;4934249;29;20685;-77
2022/02/28 05:10:58;;;;;;;5.00;4.25;;;;;;;;;;4927256;29;20214;-77
2022/02/28 05:13:27;;;;;;;6.90;4.18;;;;;;;;;;4934278;29;20670;-77
2022/02/28 05:15:54;;;;;;;4.68;4.28;;;;;;;;;;4933979;29;20570;-77
2022/02/28 05:18:21;;;;;;;6.03;4.47;;;;;;;;;;4934700;29;20207;-77
2022/02/28 05:20:48;;;;;;;6.57;4.65;;;;;;;;;;4931829;29;20214;-78
2022/02/28 05:23:15;;;;;;;6.53;4.53;;;;;;;;;;4934845;29;20218;-77
2022/02/28 05:25:42;;;;;;;5.35;4.68;;;;;;;;;;4934577;29;20206;-77
2022/02/28 05:28:09;;;;;;;6.85;4.30;;;;;;;;;;4934440;29;20198;-77
2022/02/28 05:30:38;;;;;;;4.15;3.85;;;;;;;;;;4933857;29;20203;-78
2022/02/28 05:33:05;;;;;;;5.57;4.60;;;;;;;;;;4935057;29;20201;-75
2022/02/28 05:35:32;;;;;;;8.32;4.88;;;;;;;;;;4934201;29;20210;-77
2022/02/28 05:37:59;;;;;;;4.50;4.10;;;;;;;;;;4933190;29;20719;-76
2022/02/28 05:40:27;;;;;;;6.43;4.55;;;;;;;;;;4934638;29;20233;-77
2022/02/28 05:42:54;;;;;;;5.28;4.60;;;;;;;;;;4934721;29;20306;-77
2022/02/28 05:45:21;;;;;;;7.15;4.80;;;;;;;;;;4933657;29;20223;-78
2022/02/28 05:47:50;;;;;;;4.90;4.40;;;;;;;;;;4924182;29;20656;-78
2022/02/28 05:50:17;;;;;;;4.90;4.05;;;;;;;;;;4932956;29;20686;-77
2022/02/28 05:52:45;;;;;;;7.75;4.50;;;;;;;;;;4933421;29;20198;-76
2022/02/28 05:55:13;;;;;;;5.63;5.13;;;;;;;;;;4932620;29;20274;-77
2022/02/28 05:57:40;;;;;;;6.25;4.10;;;;;;;;;;4933608;29;20202;-76
2022/02/28 06:00:08;;;;;;;6.00;4.60;;;;;;;;;;4933021;29;20667;-76
2022/02/28 06:02:35;;;;;;;6.05;4.75;;;;;;;;;;4934056;29;20671;-76
2022/02/28 06:05:04;;;;;;;6.63;4.38;;;;;;;;;;4933486;29;20712;-76
2022/02/28 06:07:31;;;;;;;5.30;4.65;;;;;;;;;;4930761;29;20203;-77
2022/02/28 06:09:58;;;;;;;6.78;4.95;;;;;;;;;;4944335;29;20231;-76
2022/02/28 06:12:25;;;;;;;8.70;5.35;;;;;;;;;;4951338;29;20567;-76
2022/02/28 06:14:52;;;;;;;5.10;4.60;;;;;;;;;;4934915;29;20187;-76
2022/02/28 06:17:19;;;;;;;4.85;4.35;;;;;;;;;;4932372;29;20206;-76
2022/02/28 06:19:48;;;;;;;8.73;5.53;;;;;;;;;;4935193;29;20203;-76
2022/02/28 06:22:17;;;;;;;6.28;5.00;;;;;;;;;;4933630;29;20195;-76
2022/02/28 06:24:44;;;;;;;5.88;5.28;;;;;;;;;;4932425;29;20670;-76
2022/02/28 06:27:11;;;;;;;6.45;4.78;;;;;;;;;;4932878;29;20211;-77
2022/02/28 06:29:39;;;;;;;7.20;5.05;;;;;;;;;;4948739;29;20202;-76
2022/02/28 06:32:07;;;;;;;9.32;4.78;;;;;;;;;;4932304;29;20201;-76
2022/02/28 06:34:34;;;;;;;7.22;5.22;;;;;;;;;;4932634;29;20199;-76
2022/02/28 06:37:02;;;;;;;8.98;5.53;;;;;;;;;;4930349;29;20210;-76
2022/02/28 06:39:30;;;;;;;7.70;6.07;;;;;;;;;;4924289;29;20296;-76
2022/02/28 06:41:58;;;;;;;8.13;4.70;;;;;;;;;;4945987;29;20713;-76
2022/02/28 06:44:25;;;;;;;5.28;4.70;;;;;;;;;;4947610;29;20214;-76
2022/02/28 06:46:53;;;;;;;7.50;4.60;;;;;;;;;;4942016;29;20213;-76
2022/02/28 06:49:20;;;;;;;5.88;5.22;;;;;;;;;;4933716;29;20230;-76
2022/02/28 06:51:48;;;;;;;9.52;5.35;;;;;;;;;;4933125;29;20203;-76
2022/02/28 06:54:15;;;;;;;5.85;5.15;;;;;;;;;;4938609;29;20202;-75
2022/02/28 06:56:44;;;;;;;6.25;5.65;;;;;;;;;;4938368;29;20215;-76
2022/02/28 06:59:11;;;;;;;5.45;4.85;;;;;;;;;;4944388;29;20198;-75
2022/02/28 07:01:38;;;;;;;6.60;4.68;;;;;;;;;;4933821;29;20697;-77
2022/02/28 07:04:07;;;;;;;8.82;5.72;;;;;;;;;;4930283;29;20678;-76
2022/02/28 07:06:35;;;;;;;8.20;5.70;;;;;;;;;;4930037;29;20206;-76
2022/02/28 07:09:02;;;;;;;4.93;4.38;;;;;;;;;;4933346;29;20210;-75
2022/02/28 07:11:29;;;;;;;7.45;5.05;;;;;;;;;;4932577;29;20678;-76
2022/02/28 07:13:57;;;;;;;7.25;5.50;;;;;;;;;;4930867;29;20626;-76
2022/02/28 07:16:24;;;;;;;8.15;5.45;;;;;;;;;;4938103;29;20563;-75
2022/02/28 07:18:51;;;;;;;7.35;4.93;;;;;;;;;;4934356;29;20658;-74
2022/02/28 07:21:19;;;;;;;9.05;4.57;;;;;;;;;;4927990;29;20214;-75
2022/02/28 07:23:46;;;;;;;6.25;5.25;;;;;;;;;;4929898;29;20211;-77
2022/02/28 07:26:13;;;;;;;5.75;3.95;;;;;;;;;;4928259;29;20662;-75
2022/02/28 07:28:40;;;;;;;6.95;5.60;;;;;;;;;;4926357;29;20978;-75
2022/02/28 07:31:09;;;;;;;9.60;4.82;;;;;;;;;;4924562;29;20203;-75
2022/02/28 07:33:37;;;;;;;12.68;5.72;;;;;;;;;;4930265;29;20640;-75
2022/02/28 07:36:06;;;;;;;10.70;7.13;;;;;;;;;;4929329;29;20315;-75
2022/02/28 07:38:33;;;;;;;6.15;4.80;;;;;;;;;;4939916;29;20206;-80
2022/02/28 07:41:00;;;;;;;6.43;5.20;;;;;;;;;;4937704;29;20727;-80
2022/02/28 07:43:28;;;;;;;9.50;6.35;;;;;;;;;;4943458;29;20853;-80
2022/02/28 07:45:55;;;;;;;6.25;5.20;;;;;;;;;;4942250;29;20709;-80
2022/02/28 07:48:24;;;;;;;7.20;5.28;;;;;;;;;;4945274;29;20211;-81
2022/02/28 07:50:51;;;;;;;5.75;4.72;;;;;;;;;;4945361;29;20202;-81
2022/02/28 07:53:19;;;;;;;8.27;5.15;;;;;;;;;;4963637;29;20206;-81
2022/02/28 07:55:46;;;;;;;5.25;4.75;;;;;;;;;;4946051;29;20196;-81
2022/02/28 07:58:13;;;;;;;6.07;4.80;;;;;;;;;;4946876;29;20211;-81
2022/02/28 08:00:40;;;;;;;6.15;4.68;;;;;;;;;;4944037;29;20873;-81
2022/02/28 08:03:07;;;;;;;5.20;4.70;;;;;;;;;;4939947;29;20199;-81
2022/02/28 08:05:37;;;;;;;6.22;5.30;;;;;;;;;;4937613;29;20218;-84
2022/02/28 08:08:04;;;;;;;5.13;4.60;;;;;;;;;;4934024;29;20222;-82
2022/02/28 08:10:32;;;;;;;6.70;5.28;;;;;;;;;;4935980;29;20207;-83
2022/02/28 08:12:59;;;;;;;8.77;6.00;;;;;;;;;;4931570;29;20586;-83
2022/02/28 08:15:26;;;;;;;6.07;4.00;;;;;;;;;;4933120;29;20203;-81
2022/02/28 08:17:53;;;;;;;5.95;4.72;;;;;;;;;;4931244;29;20198;-81
2022/02/28 08:20:20;;;;;;;7.68;4.70;;;;;;;;;;4936092;29;20202;-82
2022/02/28 08:22:48;;;;;;;5.93;4.80;;;;;;;;;;4935049;29;20207;-83
2022/02/28 08:25:15;;;;;;;5.55;4.90;;;;;;;;;;4932514;29;20215;-81
2022/02/28 08:27:43;;;;;;;7.80;4.68;;;;;;;;;;4936026;29;20508;-82
2022/02/28 08:30:10;;;;;;;5.85;5.00;;;;;;;;;;4931732;29;20215;-82
2022/02/28 08:32:37;;;;;;;6.72;5.35;;;;;;;;;;4934084;29;20571;-82
2022/02/28 08:35:05;;;;;;;5.20;4.00;;;;;;;;;;4932278;29;20191;-80
2022/02/28 08:37:32;;;;;;;5.03;4.53;;;;;;;;;;4934810;29;20594;-82
2022/02/28 08:40:01;;;;;;;4.93;4.43;;;;;;;;;;4934213;29;20202;-82
2022/02/28 08:42:28;;;;;;;5.90;4.18;;;;;;;;;;4934243;29;20294;-82
2022/02/28 08:44:55;;;;;;;7.13;5.07;;;;;;;;;;4932663;29;20223;-81
2022/02/28 08:47:22;;;;;;;5.80;4.55;;;;;;;;;;4931507;29;20203;-81
2022/02/28 08:49:49;;;;;;;7.80;4.82;;;;;;;;;;4933379;29;20650;-81
2022/02/28 08:52:16;;;;;;;7.93;4.53;;;;;;;;;;4933516;29;20195;-82
2022/02/28 08:54:44;;;;;;;5.40;4.85;;;;;;;;;;4930856;29;20227;-80
2022/02/28 08:57:12;;;;;;;4.32;3.83;;;;;;;;;;4933398;29;20210;-80
2022/02/28 08:59:39;;;;;;;7.22;4.53;;;;;;;;;;4930115;29;20230;-82
2022/02/28 09:02:06;;;;;;;6.65;5.68;;;;;;;;;;4934792;29;20551;-82
2022/02/28 09:04:34;;;;;;;6.50;5.38;;;;;;;;;;4933625;29;20206;-83
2022/02/28 09:07:01;;;;;;;5.80;5.20;;;;;;;;;;4937716;29;20207;-83
2022/02/28 09:09:28;;;;;;;5.18;4.53;;;;;;;;;;4932856;29;20207;-83
2022/02/28 09:11:55;;;;;;;5.30;4.30;;;;;;;;;;4934835;29;20206;-81
2022/02/28 09:14:23;;;;;;;6.78;4.70;;;;;;;;;;4935271;29;20537;-82
2022/02/28 09:16:50;;;;;;;7.40;5.20;;;;;;;;;;4930353;29;20213;-83
2022/02/28 09:19:18;;;;;;;5.55;4.88;;;;;;;;;;4935392;29;20199;-81
2022/02/28 09:21:45;;;;;;;5.03;3.95;;;;;;;;;;4931666;29;20594;-82
2022/02/28 09:24:12;;;;;;;6.00;4.57;;;;;;;;;;4944304;29;20211;-81
2022/02/28 09:26:39;;;;;;;6.32;4.65;;;;;;;;;;4938019;29;20479;-81
2022/02/28 09:29:07;;;;;;;5.40;4.50;;;;;;;;;;4934895;29;20207;-82
2022/02/28 09:31:35;;;;;;;5.70;4.25;;;;;;;;;;4933735;29;20206;-81
2022/02/28 09:34:02;;;;;;;8.65;5.70;;;;;;;;;;4935266;29;20667;-81
2022/02/28 09:36:30;;;;;;;6.22;5.25;;;;;;;;;;4931608;29;20818;-83
2022/02/28 09:38:58;;;;;;;8.15;4.20;;;;;;;;;;4933201;29;20545;-82
2022/02/28 09:41:25;;;;;;;6.15;4.53;;;;;;;;;;4936467;29;20809;-83
2022/02/28 09:43:53;;;;;;;7.43;4.95;;;;;;;;;;4932353;29;20218;-80
2022/02/28 09:46:20;;;;;;;10.90;5.93;;;;;;;;;;4934606;29;20219;-81
2022/02/28 09:48:49;;;;;;;12.07;4.32;;;;;;;;;;4940624;29;20559;-83
2022/02/28 09:51:16;;;;;;;9.85;5.10;;;;;;;;;;4942190;29;20206;-82
2022/02/28 09:53:43;;;;;;;5.60;4.72;;;;;;;;;;4934769;29;20211;-82
2022/02/28 09:56:10;;;;;;;6.05;4.85;;;;;;;;;;4933290;29;20694;-81
2022/02/28 09:58:37;;;;;;;5.55;4.40;;;;;;;;;;4934985;29;20204;-82
2022/02/28 10:01:04;;;;;;;4.65;4.25;;;;;;;;;;4938989;29;20203;-82
2022/02/28 10:03:32;;;;;;;4.72;4.25;;;;;;;;;;4933704;29;20215;-83
2022/02/28 10:06:01;;;;;;;7.00;4.40;;;;;;;;;;4933394;29;20218;-83
2022/02/28 10:08:40;;;;;;;5.88;5.03;;;;;;;;;;4932119;29;20742;-82
2022/02/28 10:11:08;;;;;;;5.50;4.20;;;;;;;;;;4930484;29;20234;-82
2022/02/28 10:13:38;;;;;;;6.32;4.88;;;;;;;;;;4930974;29;20635;-81
2022/02/28 10:16:05;;;;;;;5.10;4.60;;;;;;;;;;4929311;29;20667;-81
2022/02/28 10:18:32;;;;;;;4.95;4.00;;;;;;;;;;4934468;29;20640;-82
2022/02/28 10:21:02;;;;;;;5.07;4.05;;;;;;;;;;4927320;29;20246;-80
2022/02/28 10:23:29;;;;;;;4.93;3.80;;;;;;;;;;4930012;29;20222;-81
2022/02/28 10:25:57;;;;;;;6.28;4.05;;;;;;;;;;4928061;29;20226;-82
2022/02/28 10:28:25;;;;;;;8.38;4.13;;;;;;;;;;4930418;29;20262;-81
2022/02/28 10:30:54;;;;;;;5.60;4.28;;;;;;;;;;4927959;29;20202;-82
2022/02/28 10:33:22;;;;;;;4.93;3.80;;;;;;;;;;4923845;29;20207;-81
2022/02/28 10:36:10;;;;;;;5.75;4.25;;;;;;;;;;4930195;29;20619;-82
2022/02/28 10:38:43;;;;;;;4.82;4.10;;;;;;;;;;4931587;29;20225;-81
2022/02/28 10:41:16;;;;;;;7.35;4.88;;;;;;;;;;4914245;29;20251;-82
2022/02/28 10:43:43;;;;;;;6.93;4.47;;;;;;;;;;4927351;29;20204;-81
2022/02/28 10:46:15;;;;;;;6.35;4.10;;;;;;;;;;4921857;29;20237;-81
2022/02/28 10:48:42;;;;;;;6.43;4.40;;;;;;;;;;4931705;29;20659;-79
2022/02/28 10:51:15;;;;;;;5.10;4.60;;;;;;;;;;4931236;29;20211;-81
2022/02/28 10:53:43;;;;;;;5.72;4.47;;;;;;;;;;4930019;29;20210;-82
2022/02/28 10:56:10;;;;;;;5.13;3.92;;;;;;;;;;4932097;29;20659;-80
2022/02/28 10:58:38;;;;;;;5.25;4.20;;;;;;;;;;4933172;29;20199;-81
2022/02/28 11:01:07;;;;;;;5.57;4.57;;;;;;;;;;4927712;29;20262;-82
2022/02/28 11:03:44;;;;;;;6.95;5.05;;;;;;;;;;4925291;29;20206;-82
2022/02/28 11:06:13;;;;;;;6.57;3.90;;;;;;;;;;4927855;29;20211;-81
2022/02/28 11:08:43;;;;;;;9.20;4.20;;;;;;;;;;4932302;29;20667;-82
2022/02/28 11:11:11;;;;;;;5.88;4.20;;;;;;;;;;4930024;29;20203;-80
2022/02/28 11:13:38;;;;;;;6.25;5.38;;;;;;;;;;4941929;29;20203;-81
2022/02/28 11:16:08;;;;;;;7.40;4.40;;;;;;;;;;4933541;29;20203;-80
2022/02/28 11:18:35;;;;;;;6.57;5.10;;;;;;;;;;4935389;29;20233;-82
2022/02/28 11:21:02;;;;;;;5.88;4.53;;;;;;;;;;4931383;29;20203;-82
2022/02/28 11:23:30;;;;;;;9.48;4.78;;;;;;;;;;4928967;29;20440;-81
2022/02/28 11:25:58;;;;;;;7.10;4.60;;;;;;;;;;4931062;29;20691;-82
2022/02/28 11:28:26;;;;;;;5.82;4.13;;;;;;;;;;4922419;29;20210;-82
2022/02/28 11:31:01;;;;;;;4.43;3.90;;;;;;;;;;4930865;29;20206;-82
2022/02/28 11:33:28;;;;;;;6.93;5.40;;;;;;;;;;4935530;29;20191;-81
2022/02/28 11:35:56;;;;;;;7.45;4.53;;;;;;;;;;4934969;29;20195;-81
2022/02/28 11:38:38;;;;;;;8.45;5.00;;;;;;;;;;4926092;29;20202;-82
2022/02/28 11:41:07;;;;;;;8.40;5.10;;;;;;;;;;4931881;29;20203;-82
2022/02/28 11:43:35;;;;;;;7.95;5.25;;;;;;;;;;4930033;29;20206;-81
2022/02/28 11:46:11;;;;;;;5.38;4.63;;;;;;;;;;4933537;29;20234;-79
2022/02/28 11:48:40;;;;;;;5.75;4.72;;;;;;;;;;4934515;29;20202;-82
2022/02/28 11:51:08;;;;;;;5.50;5.00;;;;;;;;;;4928930;29;20255;-80
2022/02/28 11:53:36;;;;;;;8.27;5.60;;;;;;;;;;4919285;29;20198;-81
2022/02/28 11:56:04;;;;;;;5.30;4.47;;;;;;;;;;4930694;29;20198;-81
2022/02/28 11:58:34;;;;;;;5.30;4.80;;;;;;;;;;4930980;29;20203;-81
2022/02/28 12:01:11;;;;;;;7.15;5.35;;;;;;;;;;4931733;29;20651;-83
2022/02/28 12:03:39;;;;;;;5.70;4.90;;;;;;;;;;4933766;29;20542;-81
2022/02/28 12:06:06;;;;;;;5.28;4.18;;;;;;;;;;4931537;29;20225;-81
2022/02/28 12:08:37;;;;;;;5.65;4.72;;;;;;;;;;4932055;29;20206;-82
2022/02/28 12:11:20;;;;;;;6.03;5.28;;;;;;;;;;4932821;29;20229;-81
2022/02/28 12:13:59;;;;;;;4.90;4.40;;;;;;;;;;4928115;29;20209;-81
2022/02/28 12:19:28;;;;;;;5.18;4.20;;;;;;;;;;4927504;29;20564;-82
2022/02/28 12:21:59;;;;;;;6.85;4.07;;;;;;;;;;4923359;29;20200;-82
2022/02/28 12:24:41;;;;;;;7.30;5.15;;;;;;;;;;4928066;29;20215;-82
2022/02/28 12:27:12;;;;;;;6.30;5.20;;;;;;;;;;4930394;29;20226;-81
2022/02/28 12:29:41;;;;;;;5.30;4.28;;;;;;;;;;4934086;29;20367;-81
2022/02/28 12:32:09;;;;;;;7.82;4.85;;;;;;;;;;4933079;29;20206;-81
2022/02/28 12:34:36;;;;;;;6.93;4.68;;;;;;;;;;4932971;29;20221;-81
2022/02/28 12:37:04;;;;;;;6.25;4.03;;;;;;;;;;4935190;29;20213;-81
2022/02/28 12:39:31;;;;;;;5.15;4.63;;;;;;;;;;4933261;29;20207;-81
2022/02/28 12:41:58;;;;;;;6.25;4.25;;;;;;;;;;4929692;29;20202;-82
2022/02/28 12:44:27;;;;;;;5.55;5.10;;;;;;;;;;4933256;29;20215;-82
2022/02/28 12:46:55;;;;;;;6.40;4.28;;;;;;;;;;4930822;29;20237;-81
2022/02/28 12:49:25;;;;;;;5.70;4.60;;;;;;;;;;4930563;29;20200;-82
2022/02/28 12:51:53;;;;;;;7.65;5.85;;;;;;;;;;4919029;29;20211;-83
2022/02/28 12:54:21;;;;;;;6.25;4.30;;;;;;;;;;4927921;29;20211;-82
2022/02/28 12:56:52;;;;;;;6.30;4.60;;;;;;;;;;4931487;29;20210;-82
2022/02/28 12:59:19;;;;;;;6.38;5.40;;;;;;;;;;4928964;29;20710;-82
2022/02/28 13:01:46;;;;;;;6.53;4.85;;;;;;;;;;4929955;29;20237;-80
2022/02/28 13:04:15;;;;;;;5.55;4.90;;;;;;;;;;4932079;29;20206;-82
2022/02/28 13:06:42;;;;;;;5.78;4.00;;;;;;;;;;4914148;29;20695;-82
2022/02/28 13:09:11;;;;;;;5.63;4.07;;;;;;;;;;4923205;29;20217;-82
2022/02/28 13:11:38;;;;;;;6.85;4.85;;;;;;;;;;4921385;29;20223;-82
2022/02/28 13:14:06;;;;;;;7.13;4.05;;;;;;;;;;4931691;29;20721;-81
2022/02/28 13:16:35;;;;;;;4.28;3.95;;;;;;;;;;4932027;29;20203;-81
2022/02/28 13:19:02;;;;;;;5.80;4.70;;;;;;;;;;4930363;29;20195;-82
2022/02/28 13:21:32;;;;;;;6.07;4.45;;;;;;;;;;4918598;29;20595;-82
2022/02/28 13:24:06;;;;;;;5.70;4.38;;;;;;;;;;4931701;29;20225;-82
2022/02/28 13:26:33;;;;;;;4.93;3.80;;;;;;;;;;4927230;29;20226;-83
2022/02/28 13:29:01;;;;;;;5.43;4.72;;;;;;;;;;4933662;29;20203;-82
2022/02/28 13:31:28;;;;;;;5.30;4.22;;;;;;;;;;4931865;29;20218;-81
2022/02/28 13:33:56;;;;;;;4.88;4.38;;;;;;;;;;4928528;29;20303;-82
2022/02/28 13:36:31;;;;;;;5.65;5.03;;;;;;;;;;4924523;29;20200;-81
2022/02/28 13:39:00;;;;;;;4.80;3.50;;;;;;;;;;4934208;29;20210;-80
2022/02/28 13:41:30;;;;;;;4.43;3.60;;;;;;;;;;4926501;29;20199;-81
2022/02/28 13:43:58;;;;;;;4.55;4.10;;;;;;;;;;4927420;29;20663;-82
2022/02/28 13:46:26;;;;;;;5.50;3.95;;;;;;;;;;4929655;29;20456;-82
2022/02/28 13:48:57;;;;;;;7.88;6.10;;;;;;;;;;4931944;29;20218;-81
2022/02/28 13:51:25;;;;;;;6.18;4.40;;;;;;;;;;4931231;29;20655;-81
2022/02/28 13:53:52;;;;;;;6.32;4.80;;;;;;;;;;4931099;29;20206;-81
2022/02/28 13:56:29;;;;;;;5.72;4.22;;;;;;;;;;4917948;29;20230;-81
2022/02/28 13:59:06;;;;;;;4.43;4.03;;;;;;;;;;4923119;29;20610;-80
2022/02/28 14:01:34;;;;;;;5.20;4.13;;;;;;;;;;4934683;29;20655;-80
2022/02/28 14:04:01;;;;;;;4.07;3.58;;;;;;;;;;4930246;29;20582;-81
2022/02/28 14:06:29;;;;;;;4.97;3.85;;;;;;;;;;4931868;29;20237;-81
2022/02/28 14:08:56;;;;;;;5.63;4.45;;;;;;;;;;4932224;29;20960;-81
2022/02/28 14:11:32;;;;;;;6.55;4.90;;;;;;;;;;4930806;29;20621;-81
2022/02/28 14:14:00;;;;;;;4.82;4.10;;;;;;;;;;4951064;29;20502;-81
2022/02/28 14:16:28;;;;;;;5.97;5.40;;;;;;;;;;4940788;29;20199;-80
2022/02/28 14:19:03;;;;;;;6.38;5.00;;;;;;;;;;4932340;29;20206;-82
2022/02/28 14:21:31;;;;;;;5.45;3.70;;;;;;;;;;4930684;29;20225;-83
2022/02/28 14:23:58;;;;;;;5.47;4.10;;;;;;;;;;4926959;29;20637;-84
2022/02/28 14:26:30;;;;;;;7.10;4.72;;;;;;;;;;4924012;29;20590;-86
2022/02/28 14:29:01;;;;;;;5.53;3.70;;;;;;;;;;4932534;29;20685;-83
2022/02/28 14:31:28;;;;;;;9.20;4.50;;;;;;;;;;4931254;29;20685;-83
2022/02/28 14:33:55;;;;;;;7.28;5.05;;;;;;;;;;4932773;29;20211;-83
2022/02/28 14:36:23;;;;;;;7.93;4.88;;;;;;;;;;4932531;29;20671;-83
2022/02/28 14:38:51;;;;;;;8.10;5.80;;;;;;;;;;4929808;29;20210;-84
2022/02/28 14:41:19;;;;;;;6.78;4.80;;;;;;;;;;4928479;29;20207;-83
2022/02/28 14:43:46;;;;;;;5.80;3.83;;;;;;;;;;4932514;29;20220;-85
2022/02/28 14:46:16;;;;;;;7.20;3.97;;;;;;;;;;4929485;29;20215;-85
2022/02/28 14:48:44;;;;;;;4.13;3.53;;;;;;;;;;4936142;29;20683;-84
2022/02/28 14:51:12;;;;;;;7.60;3.90;;;;;;;;;;4927562;29;20235;-84